createdAt,value
2018-11-21T00:01:05.496Z,6.90
2018-11-21T00:03:34.453Z,7.47
2018-11-21T00:06:04.367Z,7.17
2018-11-21T00:08:34.709Z,7.30
2018-11-21T00:11:04.517Z,6.83
2018-11-21T00:13:34.624Z,6.37
2018-11-21T00:16:04.642Z,6.60
2018-11-21T00:18:34.579Z,7.10
2018-11-21T00:21:04.087Z,7.60
2018-11-21T00:23:34.260Z,7.33
2018-11-21T00:26:03.996Z,7.13
2018-11-21T00:28:32.846Z,7.00
2018-11-21T00:31:02.253Z,7.37
2018-11-21T00:33:32.100Z,6.83
2018-11-21T00:36:02.776Z,7.30
2018-11-21T00:38:33.025Z,7.90
2018-11-21T00:41:02.777Z,7.27
2018-11-21T00:43:35.710Z,5.60
2018-11-21T00:46:09.519Z,7.07
2018-11-21T00:48:39.044Z,7.17
2018-11-21T00:51:08.764Z,6.70
2018-11-21T00:53:38.541Z,7.17
2018-11-21T00:56:27.672Z,6.73
2018-11-21T00:58:57.371Z,7.53
2018-11-21T01:01:30.038Z,6.80
2018-11-21T01:04:00.160Z,7.13
2018-11-21T01:06:30.304Z,6.90
2018-11-21T01:09:05.028Z,6.93
2018-11-21T01:11:35.455Z,5.97
2018-11-21T01:14:05.835Z,6.80
2018-11-21T01:16:36.112Z,6.63
2018-11-21T01:19:06.187Z,6.47
2018-11-21T01:21:35.703Z,6.80
2018-11-21T01:24:05.712Z,7.43
2018-11-21T01:26:35.993Z,6.77
2018-11-21T01:29:05.840Z,7.13
2018-11-21T01:31:35.397Z,6.60
2018-11-21T01:34:05.610Z,6.37
2018-11-21T01:36:35.142Z,6.67
2018-11-21T01:39:05.637Z,6.30
2018-11-21T01:41:35.505Z,6.70
2018-11-21T01:44:06.180Z,6.77
2018-11-21T01:46:37.141Z,7.30
2018-11-21T01:49:07.675Z,6.10
2018-11-21T01:51:42.832Z,6.67
2018-11-21T01:54:12.973Z,6.50
2018-11-21T01:56:43.238Z,6.23
2018-11-21T01:59:14.777Z,6.27
2018-11-21T02:01:43.578Z,6.80
2018-11-21T02:04:13.414Z,6.20
2018-11-21T02:06:43.589Z,6.40
2018-11-21T02:09:14.165Z,6.10
2018-11-21T02:11:43.814Z,6.40
2018-11-21T02:14:15.388Z,6.50
2018-11-21T02:16:45.528Z,5.90
2018-11-21T02:19:15.013Z,6.10
2018-11-21T02:21:44.806Z,6.20
2018-11-21T02:24:15.055Z,5.87
2018-11-21T02:26:45.148Z,6.13
2018-11-21T02:29:14.787Z,7.13
2018-11-21T02:31:45.057Z,7.20
2018-11-21T02:34:14.709Z,5.93
2018-11-21T02:36:44.827Z,5.83
2018-11-21T02:39:14.973Z,6.80
2018-11-21T02:41:45.273Z,5.97
2018-11-21T02:44:14.826Z,5.60
2018-11-21T02:46:45.041Z,5.90
2018-11-21T02:49:21.883Z,5.23
2018-11-21T02:51:47.381Z,5.43
2018-11-21T02:54:16.901Z,5.50
2018-11-21T02:57:19.074Z,6.23
2018-11-21T02:59:50.423Z,6.37
2018-11-21T03:02:19.986Z,5.80
2018-11-21T03:04:49.831Z,5.93
2018-11-21T03:07:19.429Z,6.30
2018-11-21T03:09:49.361Z,5.83
2018-11-21T03:12:19.271Z,7.00
2018-11-21T03:14:49.695Z,6.43
2018-11-21T03:17:21.559Z,6.57
2018-11-21T03:19:49.675Z,5.70
2018-11-21T03:22:19.591Z,6.60
2018-11-21T03:24:49.029Z,6.10
2018-11-21T03:27:19.306Z,6.07
2018-11-21T03:29:49.590Z,6.80
2018-11-21T03:32:19.894Z,6.13
2018-11-21T03:34:49.338Z,6.93
2018-11-21T03:37:18.477Z,6.03
2018-11-21T03:39:51.155Z,5.90
2018-11-21T03:42:40.833Z,6.33
2018-11-21T03:45:12.725Z,6.33
2018-11-21T03:47:42.531Z,7.10
2018-11-21T03:50:13.488Z,6.37
2018-11-21T03:52:43.356Z,6.10
2018-11-21T03:55:15.943Z,6.60
2018-11-21T03:57:46.322Z,6.20
2018-11-21T04:00:16.462Z,6.57
2018-11-21T04:02:46.893Z,5.93
2018-11-21T04:05:16.369Z,5.90
2018-11-21T04:07:46.697Z,6.57
2018-11-21T04:10:16.381Z,6.70
2018-11-21T04:12:46.184Z,6.53
2018-11-21T04:15:15.849Z,6.50
2018-11-21T04:17:45.672Z,5.77
2018-11-21T04:20:15.075Z,6.80
2018-11-21T04:22:44.523Z,6.63
2018-11-21T04:25:14.676Z,6.20
2018-11-21T04:27:44.527Z,5.97
2018-11-21T04:30:16.931Z,7.03
2018-11-21T04:32:46.904Z,7.20
2018-11-21T04:35:20.671Z,6.83
2018-11-21T04:37:51.330Z,6.40
2018-11-21T04:40:23.479Z,6.63
2018-11-21T04:42:52.142Z,6.03
2018-11-21T04:45:21.742Z,6.33
2018-11-21T04:47:55.974Z,6.33
2018-11-21T04:50:24.313Z,6.30
2018-11-21T04:52:54.634Z,6.60
2018-11-21T04:55:25.172Z,6.63
2018-11-21T04:57:55.488Z,5.93
2018-11-21T05:00:27.733Z,6.40
2018-11-21T05:02:58.121Z,6.60
2018-11-21T05:05:28.232Z,5.87
2018-11-21T05:07:58.055Z,7.07
2018-11-21T05:10:27.977Z,5.90
2018-11-21T05:12:59.146Z,7.33
2018-11-21T05:15:28.789Z,7.07
2018-11-21T05:17:58.586Z,7.07
2018-11-21T05:20:28.387Z,6.93
2018-11-21T05:23:00.521Z,7.03
2018-11-21T05:25:30.924Z,7.30
2018-11-21T05:28:00.758Z,7.17
2018-11-21T05:30:32.112Z,6.60
2018-11-21T05:33:02.523Z,6.33
2018-11-21T05:35:32.460Z,6.40
2018-11-21T05:38:02.304Z,5.93
2018-11-21T05:40:32.627Z,6.67
2018-11-21T05:43:31.858Z,6.73
2018-11-21T05:46:25.237Z,6.10
2018-11-21T05:48:55.597Z,6.10
2018-11-21T05:51:27.030Z,6.30
2018-11-21T05:54:10.095Z,6.00
2018-11-21T05:56:29.202Z,5.83
2018-11-21T05:58:59.697Z,6.43
2018-11-21T06:01:29.043Z,7.23
2018-11-21T06:03:58.986Z,6.43
2018-11-21T06:06:30.101Z,7.07
2018-11-21T06:09:00.165Z,7.33
2018-11-21T06:11:29.946Z,6.90
2018-11-21T06:13:59.741Z,6.50
2018-11-21T06:16:29.581Z,7.00
2018-11-21T06:19:01.696Z,6.80
2018-11-21T06:21:30.241Z,6.23
2018-11-21T06:24:02.446Z,7.03
2018-11-21T06:26:31.595Z,6.80
2018-11-21T06:29:01.520Z,7.20
2018-11-21T06:31:31.743Z,6.90
2018-11-21T06:34:02.619Z,6.67
2018-11-21T06:36:32.775Z,7.37
2018-11-21T06:39:03.237Z,6.90
2018-11-21T06:41:36.664Z,6.97
2018-11-21T06:44:04.377Z,5.87
2018-11-21T06:46:38.331Z,6.80
2018-11-21T06:52:03.507Z,6.67
2018-11-21T06:54:40.044Z,7.53
2018-11-21T06:57:22.170Z,6.90
2018-11-21T06:59:52.408Z,7.00
2018-11-21T07:02:25.376Z,7.83
2018-11-21T07:04:54.893Z,6.70
2018-11-21T07:07:25.758Z,7.27
2018-11-21T07:09:55.344Z,7.17
2018-11-21T07:12:27.731Z,7.23
2018-11-21T07:14:58.102Z,6.00
2018-11-21T07:17:28.172Z,6.30
2018-11-21T07:19:58.429Z,6.83
2018-11-21T07:22:28.812Z,6.30
2018-11-21T07:24:59.754Z,6.47
2018-11-21T07:27:29.930Z,7.37
2018-11-21T07:29:59.981Z,7.13
2018-11-21T07:32:32.982Z,7.37
2018-11-21T07:35:02.855Z,6.87
2018-11-21T07:37:34.335Z,7.67
2018-11-21T07:40:04.278Z,8.00
2018-11-21T07:42:37.493Z,6.93
2018-11-21T07:45:09.413Z,6.97
2018-11-21T07:47:39.958Z,7.10
2018-11-21T07:50:12.615Z,6.80
2018-11-21T07:52:42.337Z,7.63
2018-11-21T07:55:12.504Z,7.53
2018-11-21T07:57:53.276Z,8.37
2018-11-21T08:01:15.790Z,7.97
2018-11-21T08:03:52.790Z,7.50
2018-11-21T08:06:24.816Z,7.63
2018-11-21T08:09:22.805Z,8.00
2018-11-21T08:12:17.618Z,8.13
2018-11-21T08:15:28.489Z,9.03
2018-11-21T08:18:07.542Z,7.23
2018-11-21T08:20:54.869Z,8.43
2018-11-21T08:23:55.495Z,7.80
2018-11-21T08:26:46.366Z,7.43
2018-11-21T08:29:16.366Z,8.07
2018-11-21T08:31:46.148Z,7.33
2018-11-21T08:34:15.029Z,7.80
2018-11-21T08:36:44.303Z,9.10
2018-11-21T08:39:14.000Z,7.30
2018-11-21T08:41:43.916Z,8.17
2018-11-21T08:44:13.961Z,7.90
2018-11-21T08:46:43.987Z,7.53
2018-11-21T08:49:13.713Z,6.97
2018-11-21T08:51:46.194Z,7.50
2018-11-21T08:56:55.815Z,7.53
2018-11-21T08:59:35.540Z,8.00
2018-11-21T09:02:09.733Z,7.80
2018-11-21T09:04:43.337Z,7.73
2018-11-21T09:07:15.007Z,7.80
2018-11-21T09:09:44.175Z,6.73
2018-11-21T09:12:15.437Z,7.40
2018-11-21T09:14:44.712Z,7.23
2018-11-21T09:17:33.092Z,7.63
2018-11-21T09:22:52.503Z,7.97
2018-11-21T09:25:23.291Z,7.83
2018-11-21T09:27:53.162Z,7.63
2018-11-21T09:30:24.214Z,8.13
2018-11-21T09:32:55.653Z,7.73
2018-11-21T09:35:25.142Z,7.40
2018-11-21T09:37:54.973Z,7.97
2018-11-21T09:40:25.347Z,9.17
2018-11-21T09:42:56.225Z,8.47
2018-11-21T09:45:26.654Z,8.53
2018-11-21T09:47:56.708Z,8.17
2018-11-21T09:50:28.794Z,7.20
2018-11-21T09:53:00.500Z,7.07
2018-11-21T09:55:29.545Z,6.63
2018-11-21T09:57:58.986Z,7.23
2018-11-21T10:01:04.579Z,7.20
2018-11-21T10:03:36.332Z,8.10
2018-11-21T10:06:11.857Z,8.67
2018-11-21T10:08:59.564Z,8.43
2018-11-21T10:11:30.709Z,8.33
2018-11-21T10:14:00.415Z,8.17
2018-11-21T10:16:30.538Z,8.83
2018-11-21T10:19:01.405Z,7.97
2018-11-21T10:21:32.497Z,8.90
2018-11-21T10:24:02.858Z,10.13
2018-11-21T10:26:33.028Z,10.83
2018-11-21T10:29:03.211Z,8.90
2018-11-21T10:31:44.590Z,9.30
2018-11-21T10:34:13.793Z,8.00
2018-11-21T10:36:44.088Z,7.97
2018-11-21T10:39:13.552Z,9.40
2018-11-21T10:41:43.531Z,8.97
2018-11-21T10:44:14.203Z,9.40
2018-11-21T10:46:47.030Z,9.60
2018-11-21T10:49:18.203Z,9.00
2018-11-21T10:51:52.662Z,8.60
2018-11-21T10:54:21.210Z,8.37
2018-11-21T10:56:50.354Z,8.73
2018-11-21T10:59:23.369Z,9.57
2018-11-21T11:02:10.843Z,9.23
2018-11-21T11:05:17.295Z,10.63
2018-11-21T11:08:18.947Z,10.20
2018-11-21T11:10:59.754Z,10.07
2018-11-21T11:13:48.267Z,10.10
2018-11-21T11:16:36.819Z,10.47
2018-11-21T11:19:23.924Z,11.43
2018-11-21T11:22:11.577Z,11.23
2018-11-21T11:24:59.303Z,10.83
2018-11-21T11:27:54.610Z,10.87
2018-11-21T11:30:59.779Z,10.03
2018-11-21T11:33:53.945Z,9.40
2018-11-21T11:36:53.748Z,11.07
2018-11-21T11:39:42.875Z,10.23
2018-11-21T11:42:30.868Z,10.43
2018-11-21T11:45:18.280Z,10.60
2018-11-21T11:48:07.083Z,10.43
2018-11-21T11:50:51.895Z,9.23
2018-11-21T11:53:55.954Z,10.37
2018-11-21T11:56:43.161Z,10.03
2018-11-21T11:59:31.237Z,11.27
2018-11-21T12:02:18.450Z,11.00
2018-11-21T12:05:15.971Z,10.83
2018-11-21T12:08:10.145Z,11.47
2018-11-21T12:11:00.076Z,11.37
2018-11-21T12:13:47.288Z,10.13
2018-11-21T12:16:43.281Z,11.17
2018-11-21T12:19:34.231Z,10.90
2018-11-21T12:22:09.743Z,10.67
2018-11-21T12:25:19.109Z,11.37
2018-11-21T12:28:26.303Z,10.33
2018-11-21T12:31:15.039Z,9.83
2018-11-21T12:34:03.784Z,11.20
2018-11-21T12:36:51.114Z,11.50
2018-11-21T12:39:42.351Z,11.60
2018-11-21T12:42:29.834Z,10.73
2018-11-21T12:45:11.015Z,10.60
2018-11-21T12:47:59.607Z,10.13
2018-11-21T12:50:41.602Z,11.50
2018-11-21T12:53:42.433Z,10.87
2018-11-21T12:56:30.575Z,10.70
2018-11-21T12:59:23.671Z,11.00
2018-11-21T13:02:27.132Z,12.67
2018-11-21T13:05:14.206Z,10.97
2018-11-21T13:08:00.885Z,11.07
2018-11-21T13:10:37.556Z,9.90
2018-11-21T13:13:35.446Z,10.33
2018-11-21T13:16:22.726Z,10.83
2018-11-21T13:19:23.279Z,10.90
2018-11-21T13:22:30.147Z,10.70
2018-11-21T13:25:17.695Z,10.73
2018-11-21T13:28:09.917Z,10.53
2018-11-21T13:31:16.612Z,11.13
2018-11-21T13:34:11.302Z,10.77
2018-11-21T13:36:51.861Z,10.73
2018-11-21T13:39:39.316Z,11.40
2018-11-21T13:42:30.579Z,10.20
2018-11-21T13:45:17.113Z,10.07
2018-11-21T13:48:00.743Z,11.30
2018-11-21T13:50:48.508Z,9.77
2018-11-21T13:53:35.089Z,11.27
2018-11-21T13:56:05.240Z,11.17
2018-11-21T13:58:35.434Z,11.33
2018-11-21T14:01:07.809Z,11.70
2018-11-21T14:03:37.840Z,9.77
2018-11-21T14:06:11.310Z,11.27
2018-11-21T14:08:44.617Z,11.30
2018-11-21T14:11:26.669Z,11.47
2018-11-21T14:14:01.458Z,11.07
2018-11-21T14:16:31.679Z,11.47
2018-11-21T14:19:02.336Z,11.27
2018-11-21T14:21:34.527Z,10.27
2018-11-21T14:24:03.503Z,10.37
2018-11-21T14:26:35.410Z,11.87
2018-11-21T14:29:04.361Z,11.30
2018-11-21T14:31:37.636Z,11.33
2018-11-21T14:34:08.545Z,10.57
2018-11-21T14:36:38.806Z,11.93
2018-11-21T14:39:18.424Z,10.47
2018-11-21T14:41:48.875Z,11.20
2018-11-21T14:44:18.852Z,11.70
2018-11-21T14:46:50.591Z,11.73
2018-11-21T14:49:20.524Z,11.33
2018-11-21T14:51:59.420Z,11.30
2018-11-21T14:54:32.634Z,12.43
2018-11-21T14:57:02.133Z,11.97
2018-11-21T14:59:32.929Z,11.63
2018-11-21T15:02:03.412Z,12.20
2018-11-21T15:04:34.430Z,11.83
